Time;durP1;ratioP1;P1;durP2;ratioP2;P2;SDS_P1;SDS_P2;PMS_P1;PMS_P2;Temp;Humidity;BMP_temperature;BMP_pressure;BME280_temperature;BME280_humidity;BME280_pressure;Samples;Min_cycle;Max_cycle;Signal;HPM_P1;HPM_P2
2023/07/07 00:00:47;;;;;;;20.10;18.38;;;24.30;99.90;;;;;;4901708;29;20075;-94
2023/07/07 00:03:14;;;;;;;19.20;17.75;;;24.30;99.90;;;;;;4914872;29;20023;-94
2023/07/07 00:05:44;;;;;;;19.45;18.05;;;24.30;99.90;;;;;;4936384;29;20039;-95
2023/07/07 00:08:11;;;;;;;19.90;18.48;;;24.20;99.90;;;;;;4936017;29;20055;-94
2023/07/07 00:10:44;;;;;;;20.35;18.48;;;24.20;99.90;;;;;;4921251;29;20027;-93
2023/07/07 00:13:12;;;;;;;19.80;18.42;;;24.10;99.90;;;;;;4923296;29;20370;-95
2023/07/07 00:15:44;;;;;;;19.95;18.40;;;24.00;99.90;;;;;;4901419;29;20038;-95
2023/07/07 00:18:15;;;;;;;23.08;18.27;;;24.00;99.90;;;;;;4915353;23;20048;-95
2023/07/07 00:20:42;;;;;;;20.05;18.52;;;24.00;99.90;;;;;;4939644;29;20039;-95
2023/07/07 00:23:12;;;;;;;19.45;17.95;;;24.00;99.90;;;;;;4923961;29;20091;-95
2023/07/07 00:25:39;;;;;;;19.00;17.80;;;23.90;99.90;;;;;;4924748;29;20126;-94
2023/07/07 00:28:05;;;;;;;19.20;17.67;;;23.90;99.90;;;;;;4923111;29;20468;-95
2023/07/07 00:30:32;;;;;;;19.02;17.58;;;23.90;99.90;;;;;;4924039;29;20147;-94
2023/07/07 00:32:58;;;;;;;18.42;17.02;;;23.90;99.90;;;;;;4920138;29;20064;-94
2023/07/07 00:35:24;;;;;;;18.70;17.02;;;23.80;99.90;;;;;;4936041;29;20118;-94
2023/07/07 00:37:51;;;;;;;18.60;17.30;;;23.80;99.90;;;;;;4920424;29;20035;-95
2023/07/07 00:40:18;;;;;;;18.13;16.83;;;23.80;99.90;;;;;;4936287;29;20035;-94
2023/07/07 00:42:45;;;;;;;18.02;16.63;;;23.80;99.90;;;;;;4924237;29;20024;-93
2023/07/07 00:45:21;;;;;;;18.30;16.80;;;23.70;99.90;;;;;;4928850;29;20078;-94
2023/07/07 00:47:59;;;;;;;17.42;16.13;;;23.70;99.90;;;;;;4959490;29;20039;-94
2023/07/07 00:50:39;;;;;;;17.52;16.08;;;23.80;99.90;;;;;;4950855;28;20022;-93
2023/07/07 00:53:05;;;;;;;17.17;16.05;;;23.80;99.90;;;;;;4939134;29;20031;-94
2023/07/07 00:55:46;;;;;;;17.45;16.00;;;23.80;99.90;;;;;;4936496;29;20031;-93
2023/07/07 00:58:16;;;;;;;17.17;15.98;;;23.80;99.90;;;;;;4935248;29;20040;-93
2023/07/07 01:00:47;;;;;;;17.05;15.82;;;23.90;99.90;;;;;;4930962;29;20034;-95
2023/07/07 01:03:26;;;;;;;17.10;15.95;;;23.90;99.90;;;;;;4918586;29;20031;-93
2023/07/07 01:05:56;;;;;;;17.17;15.77;;;23.90;99.90;;;;;;4943863;29;20062;-94
2023/07/07 01:08:24;;;;;;;16.77;15.45;;;23.90;99.90;;;;;;4928456;29;20035;-93
2023/07/07 01:10:53;;;;;;;16.75;15.55;;;23.90;99.90;;;;;;4930661;29;20033;-94
2023/07/07 01:13:21;;;;;;;17.02;15.63;;;23.90;99.90;;;;;;4927117;29;20035;-95
2023/07/07 01:16:14;;;;;;;17.45;16.02;;;23.80;99.90;;;;;;4926525;29;20057;-95
2023/07/07 01:18:56;;;;;;;17.55;15.95;;;23.60;99.90;;;;;;4922812;29;20173;-94
2023/07/07 01:21:29;;;;;;;16.05;14.95;;;23.40;99.90;;;;;;4926441;29;20045;-94
2023/07/07 01:23:57;;;;;;;16.77;15.35;;;23.30;99.90;;;;;;4926480;29;20531;-94
2023/07/07 01:26:31;;;;;;;16.90;15.27;;;23.20;99.90;;;;;;4926391;29;20059;-94
2023/07/07 01:29:00;;;;;;;16.17;14.88;;;23.20;99.90;;;;;;4926348;29;20495;-94
2023/07/07 01:31:50;;;;;;;16.83;14.68;;;23.20;99.90;;;;;;4926447;29;20054;-94
2023/07/07 01:34:20;;;;;;;15.52;14.35;;;23.10;99.90;;;;;;4923182;29;20040;-94
2023/07/07 01:36:48;;;;;;;14.68;13.65;;;23.10;99.90;;;;;;4938640;29;20024;-94
2023/07/07 01:39:15;;;;;;;15.88;14.30;;;23.10;99.90;;;;;;4922872;29;20040;-95
2023/07/07 01:42:00;;;;;;;15.10;13.88;;;23.10;99.90;;;;;;4939221;29;20465;-93
2023/07/07 01:44:59;;;;;;;15.02;13.82;;;23.00;99.90;;;;;;4942435;29;20505;-94
2023/07/07 01:47:35;;;;;;;15.38;13.77;;;23.00;99.90;;;;;;4922872;29;20367;-93
2023/07/07 01:50:18;;;;;;;14.15;12.90;;;22.90;99.90;;;;;;4922802;29;20610;-94
2023/07/07 01:53:00;;;;;;;14.70;13.27;;;22.90;99.90;;;;;;4922718;29;20043;-95
2023/07/07 01:55:34;;;;;;;14.13;12.80;;;22.90;99.90;;;;;;4921534;29;20071;-94
2023/07/07 01:58:05;;;;;;;13.38;12.23;;;22.90;99.90;;;;;;4922827;29;20028;-94
2023/07/07 02:00:32;;;;;;;13.02;11.93;;;22.90;99.90;;;;;;4922538;29;20067;-93
2023/07/07 02:03:00;;;;;;;13.10;11.88;;;22.90;99.90;;;;;;4922466;29;20389;-93
2023/07/07 02:05:28;;;;;;;13.68;12.38;;;22.90;99.90;;;;;;4922644;29;20028;-93
2023/07/07 02:07:54;;;;;;;14.60;11.93;;;22.90;99.90;;;;;;4922156;29;20032;-94
2023/07/07 02:10:20;;;;;;;13.18;11.93;;;22.90;99.90;;;;;;4922481;29;20396;-94
2023/07/07 02:12:48;;;;;;;12.90;11.70;;;22.90;99.90;;;;;;4922465;29;20040;-93
2023/07/07 02:15:14;;;;;;;12.95;11.63;;;22.90;99.90;;;;;;4922192;29;20123;-95
2023/07/07 02:17:41;;;;;;;12.60;11.65;;;22.90;99.90;;;;;;4906304;29;20047;-94
2023/07/07 02:20:09;;;;;;;14.30;11.55;;;22.90;99.90;;;;;;4922666;29;20032;-94
2023/07/07 02:22:37;;;;;;;14.60;11.93;;;22.80;99.90;;;;;;4922360;29;20481;-95
2023/07/07 02:25:04;;;;;;;13.50;12.07;;;22.80;99.90;;;;;;4921662;29;20231;-93
2023/07/07 02:27:31;;;;;;;13.45;12.15;;;22.70;99.90;;;;;;4922378;29;20114;-94
2023/07/07 02:29:57;;;;;;;13.13;12.07;;;22.50;99.90;;;;;;4906137;29;20066;-95
2023/07/07 02:32:25;;;;;;;16.00;12.82;;;22.40;99.90;;;;;;4921936;29;20087;-94
2023/07/07 02:34:55;;;;;;;13.63;12.32;;;22.30;99.90;;;;;;4906185;29;20035;-94
2023/07/07 02:37:23;;;;;;;15.10;13.50;;;22.30;99.90;;;;;;4923021;29;20358;-93
2023/07/07 02:39:54;;;;;;;15.43;13.77;;;22.20;99.90;;;;;;4907423;29;20028;-94
2023/07/07 02:42:21;;;;;;;16.00;14.30;;;22.20;99.90;;;;;;4918976;29;20023;-94
2023/07/07 02:44:48;;;;;;;15.32;13.88;;;22.20;99.90;;;;;;4956054;28;20023;-93
2023/07/07 02:47:14;;;;;;;16.15;14.48;;;22.20;99.90;;;;;;4944913;28;20386;-94
2023/07/07 02:49:41;;;;;;;16.95;15.02;;;22.20;99.90;;;;;;4928266;29;20126;-95
2023/07/07 02:52:08;;;;;;;18.55;15.07;;;22.20;99.90;;;;;;4924907;29;20035;-94
2023/07/07 02:54:35;;;;;;;16.60;14.85;;;22.20;99.90;;;;;;4925022;29;20047;-95
2023/07/07 02:57:04;;;;;;;17.25;14.70;;;22.20;99.90;;;;;;4924777;29;20477;-94
2023/07/07 02:59:31;;;;;;;16.77;14.93;;;22.20;99.90;;;;;;4925108;29;20383;-93
2023/07/07 03:01:57;;;;;;;20.55;14.88;;;22.20;99.90;;;;;;4924838;29;20028;-94
2023/07/07 03:04:24;;;;;;;15.75;14.15;;;22.20;99.90;;;;;;4924970;29;20043;-93
2023/07/07 03:06:51;;;;;;;15.35;13.40;;;22.20;99.90;;;;;;4924802;29;20027;-93
2023/07/07 03:09:18;;;;;;;16.13;13.50;;;22.30;99.90;;;;;;4928328;28;20055;-94
2023/07/07 03:11:46;;;;;;;14.50;13.27;;;22.30;99.90;;;;;;4946630;29;20027;-93
2023/07/07 03:14:19;;;;;;;14.07;12.98;;;22.30;99.90;;;;;;4928632;29;20448;-94
2023/07/07 03:16:51;;;;;;;14.32;12.93;;;22.30;99.90;;;;;;4924568;29;20027;-94
2023/07/07 03:22:36;;;;;;;17.63;12.68;;;22.30;99.90;;;;;;4922493;29;20035;-93
2023/07/07 03:25:04;;;;;;;13.15;12.15;;;22.30;99.90;;;;;;4924671;29;20028;-93
2023/07/07 03:27:51;;;;;;;13.63;12.38;;;22.30;99.90;;;;;;4927107;29;20035;-94
2023/07/07 03:30:27;;;;;;;13.23;12.07;;;22.30;99.90;;;;;;4925471;29;20118;-93
2023/07/07 03:33:02;;;;;;;13.00;11.90;;;22.30;99.90;;;;;;4941634;29;20038;-92
2023/07/07 03:35:50;;;;;;;12.77;11.77;;;22.30;99.90;;;;;;4955843;29;20046;-93
2023/07/07 03:38:17;;;;;;;13.30;12.20;;;22.40;99.90;;;;;;4927482;29;20038;-94
2023/07/07 03:40:51;;;;;;;13.35;12.25;;;22.40;99.90;;;;;;4924954;29;20033;-94
2023/07/07 03:43:33;;;;;;;14.30;12.73;;;22.50;99.90;;;;;;4958574;23;20492;-94
2023/07/07 03:46:02;;;;;;;13.45;12.20;;;22.50;99.90;;;;;;4924240;29;20035;-94
2023/07/07 03:55:09;;;;;;;13.18;12.23;;;22.60;99.90;;;;;;5190588;23;20078;-94
2023/07/07 06:30:16;;;;;;;20.67;18.85;;;31.30;99.90;;;;;;650515;23;20299;-93
2023/07/07 06:32:43;;;;;;;20.95;19.17;;;31.60;99.90;;;;;;4979638;28;20072;-93
2023/07/07 08:28:49;;;;;;;23.17;21.65;;;32.90;99.90;;;;;;4993748;28;20415;-93
2023/07/07 08:31:16;;;;;;;23.13;21.35;;;33.10;99.90;;;;;;4977236;28;20034;-93
2023/07/07 08:33:44;;;;;;;23.58;21.95;;;33.10;99.90;;;;;;4978850;28;20050;-93
2023/07/07 08:36:11;;;;;;;21.85;20.33;;;33.10;99.90;;;;;;4965002;28;20031;-91
2023/07/07 08:38:37;;;;;;;23.05;21.48;;;32.90;99.90;;;;;;5000506;28;20030;-92
2023/07/07 08:41:04;;;;;;;21.80;20.42;;;32.90;99.90;;;;;;5000472;28;20030;-92
2023/07/07 08:43:30;;;;;;;22.90;21.30;;;32.80;99.90;;;;;;5001257;28;20030;-94
2023/07/07 08:46:14;;;;;;;22.70;21.10;;;32.60;99.90;;;;;;5007746;28;20010;-91
2023/07/07 08:48:52;;;;;;;;;;;32.60;99.90;;;;;;5041308;28;20030;-91
2023/07/07 08:51:55;;;;;;;23.48;21.67;;;32.40;99.90;;;;;;5005229;28;20247;-92
2023/07/07 08:54:44;;;;;;;22.23;20.70;;;32.30;99.90;;;;;;4906717;29;20075;-91
2023/07/07 08:57:13;;;;;;;22.15;20.55;;;32.20;99.90;;;;;;4919147;29;20071;-92
2023/07/07 09:00:21;;;;;;;22.08;20.75;;;32.30;99.90;;;;;;4903558;29;20135;-92
2023/07/07 09:03:09;;;;;;;22.80;20.85;;;32.40;99.90;;;;;;4918936;29;20367;-91
2023/07/07 09:06:16;;;;;;;22.20;20.55;;;32.40;99.90;;;;;;4920042;29;20406;-92
2023/07/07 09:09:03;;;;;;;22.38;20.88;;;32.40;99.90;;;;;;4900289;29;20471;-92
2023/07/07 09:11:58;;;;;;;22.38;20.98;;;32.40;99.90;;;;;;4900248;29;20051;-93
2023/07/07 09:14:27;;;;;;;22.13;20.58;;;32.30;99.90;;;;;;4901342;29;20033;-93
2023/07/07 09:17:00;;;;;;;21.80;20.25;;;32.30;99.90;;;;;;4909019;29;20037;-92
2023/07/07 09:19:33;;;;;;;22.83;20.95;;;32.30;99.90;;;;;;4922845;29;20021;-92
2023/07/07 09:22:18;;;;;;;21.38;19.98;;;32.70;99.90;;;;;;4903917;29;20047;-91
2023/07/07 09:25:01;;;;;;;21.38;19.88;;;32.50;99.90;;;;;;4900030;29;20036;-91
2023/07/07 09:27:34;;;;;;;21.73;20.33;;;32.40;99.90;;;;;;4899684;29;20048;-93
2023/07/07 09:30:21;;;;;;;21.85;20.33;;;32.50;99.90;;;;;;4911381;29;20039;-93
2023/07/07 09:32:48;;;;;;;22.38;20.92;;;32.30;99.90;;;;;;4929440;29;20047;-92
2023/07/07 09:35:16;;;;;;;22.42;21.13;;;32.20;99.90;;;;;;4945452;29;20099;-92
2023/07/07 09:37:42;;;;;;;21.70;20.40;;;32.40;99.90;;;;;;4946979;29;20043;-90
2023/07/07 09:40:17;;;;;;;22.35;20.92;;;32.40;99.90;;;;;;4945659;28;20035;-94
2023/07/07 09:43:01;;;;;;;22.13;20.48;;;32.40;99.90;;;;;;4950224;28;20039;-92
2023/07/07 09:45:50;;;;;;;21.92;20.63;;;32.50;99.90;;;;;;5008207;28;20029;-93
2023/07/07 09:48:25;;;;;;;22.33;20.63;;;32.40;99.90;;;;;;5009436;28;20108;-93
2023/07/07 09:51:46;;;;;;;22.05;20.75;;;31.90;99.90;;;;;;5008997;28;20029;-95
2023/07/07 09:54:15;;;;;;;22.30;20.50;;;32.00;99.90;;;;;;4930117;29;20039;-91
2023/07/07 09:57:05;;;;;;;22.98;21.58;;;31.90;99.90;;;;;;5009323;28;20072;-92
2023/07/07 09:59:39;;;;;;;22.30;20.88;;;31.70;99.90;;;;;;5019112;28;20084;-93
2023/07/07 10:02:16;;;;;;;22.08;20.67;;;31.60;99.90;;;;;;5018754;28;20025;-93
2023/07/07 10:04:48;;;;;;;22.35;20.63;;;31.70;99.90;;;;;;5021458;28;20025;-92
2023/07/07 10:07:18;;;;;;;21.83;20.45;;;31.60;99.90;;;;;;5018707;28;20037;-93
2023/07/07 10:09:44;;;;;;;22.08;20.45;;;31.60;99.90;;;;;;5002399;28;20025;-92
2023/07/07 10:12:15;;;;;;;22.52;20.90;;;31.60;99.90;;;;;;5020363;28;20048;-93
2023/07/07 10:14:42;;;;;;;22.35;20.70;;;31.50;99.90;;;;;;5004642;28;20026;-93
2023/07/07 10:17:09;;;;;;;22.33;21.00;;;31.50;99.90;;;;;;5019176;28;20048;-93
2023/07/07 10:19:44;;;;;;;22.75;21.15;;;31.90;99.90;;;;;;5002215;28;20473;-91
2023/07/07 10:22:15;;;;;;;22.55;21.10;;;31.90;99.90;;;;;;5001912;28;20474;-93
2023/07/07 10:24:44;;;;;;;22.40;20.98;;;31.80;99.90;;;;;;5001788;28;20091;-92
2023/07/07 10:27:23;;;;;;;22.50;20.90;;;31.70;99.90;;;;;;5001402;28;20122;-93
2023/07/07 10:29:50;;;;;;;21.90;20.33;;;31.50;99.90;;;;;;5018090;28;20029;-92
2023/07/07 10:32:21;;;;;;;21.90;20.60;;;31.50;99.90;;;;;;5001330;28;20103;-91
2023/07/07 10:34:51;;;;;;;22.45;20.70;;;31.50;99.90;;;;;;5017929;28;20055;-93
2023/07/07 10:37:23;;;;;;;22.00;20.33;;;31.60;99.90;;;;;;5017676;28;20375;-93
2023/07/07 10:39:52;;;;;;;21.95;20.35;;;31.60;99.90;;;;;;5001748;28;20033;-94
2023/07/07 10:42:23;;;;;;;21.50;20.10;;;31.40;99.90;;;;;;5019399;28;20025;-93
2023/07/07 10:44:54;;;;;;;21.17;19.85;;;31.30;99.90;;;;;;5037380;28;20033;-92
2023/07/07 10:47:29;;;;;;;21.20;19.52;;;31.30;99.90;;;;;;5030067;28;20486;-92
2023/07/07 10:49:57;;;;;;;20.95;19.65;;;31.30;99.90;;;;;;5018919;28;20029;-91
2023/07/07 10:52:51;;;;;;;21.08;19.70;;;31.20;99.90;;;;;;5002114;28;20025;-93
2023/07/07 10:55:44;;;;;;;21.17;19.63;;;31.00;99.90;;;;;;5001849;28;20072;-95
2023/07/07 10:58:39;;;;;;;21.75;20.10;;;31.30;99.90;;;;;;5018694;28;20136;-94
2023/07/07 11:01:25;;;;;;;;;;;31.20;99.90;;;;;;5019813;28;20059;-92
2023/07/07 11:04:11;;;;;;;21.92;20.42;;;31.20;99.90;;;;;;5004661;28;19909;-94
2023/07/07 11:06:45;;;;;;;21.45;19.70;;;31.20;99.90;;;;;;5033466;28;20095;-91
2023/07/07 11:09:30;;;;;;;;;;;31.30;99.90;;;;;;5001953;28;20056;-93
2023/07/07 11:12:29;;;;;;;21.13;19.13;;;31.20;99.90;;;;;;4981871;28;19913;-93
2023/07/07 11:15:27;;;;;;;21.23;19.80;;;30.90;99.90;;;;;;4951882;28;20030;-91
2023/07/07 11:18:15;;;;;;;21.38;19.98;;;30.70;99.90;;;;;;4998729;28;20226;-91
2023/07/07 11:21:09;;;;;;;21.42;20.05;;;30.80;99.90;;;;;;4997947;28;20115;-93
2023/07/07 11:24:11;;;;;;;;;;;30.60;99.90;;;;;;4998131;28;20033;-92
2023/07/07 11:26:55;;;;;;;20.85;19.55;;;30.70;99.90;;;;;;4930945;28;19932;-92
2023/07/07 11:29:37;;;;;;;21.77;20.13;;;30.90;99.90;;;;;;4981618;28;20075;-92
2023/07/07 11:32:10;;;;;;;21.35;20.00;;;31.10;99.90;;;;;;4997504;28;20037;-91
2023/07/07 11:34:49;;;;;;;21.90;20.33;;;31.00;99.90;;;;;;4998678;28;20029;-94
2023/07/07 11:37:34;;;;;;;23.00;20.70;;;31.40;99.90;;;;;;4997976;28;20033;-92
2023/07/07 11:40:22;;;;;;;21.58;20.00;;;31.40;99.90;;;;;;4997817;28;20069;-92
2023/07/07 11:43:10;;;;;;;22.35;20.40;;;31.00;99.90;;;;;;4998017;28;20037;-92
2023/07/07 11:46:10;;;;;;;21.77;20.20;;;30.80;99.90;;;;;;4991514;28;20036;-93
2023/07/07 11:48:59;;;;;;;21.95;20.13;;;30.60;99.90;;;;;;4997484;28;20042;-93
2023/07/07 11:55:05;;;;;;;21.30;19.90;;;30.40;99.90;;;;;;4905290;29;20478;-93
2023/07/07 11:58:25;;;;;;;22.85;21.25;;;30.40;99.90;;;;;;4903054;29;20048;-91
2023/07/07 12:01:31;;;;;;;21.85;20.23;;;30.60;99.90;;;;;;4894197;29;20051;-94
2023/07/07 12:04:09;;;;;;;21.30;19.65;;;30.90;99.90;;;;;;4888781;29;20037;-93
2023/07/07 12:06:37;;;;;;;21.00;19.55;;;30.80;99.90;;;;;;4900937;29;20127;-91
2023/07/07 12:09:14;;;;;;;21.10;19.65;;;30.60;99.90;;;;;;4886231;29;20040;-92
2023/07/07 12:11:49;;;;;;;21.35;19.67;;;30.30;99.90;;;;;;4904844;29;20032;-93
2023/07/07 12:14:31;;;;;;;21.23;19.58;;;30.30;99.90;;;;;;4888870;29;20047;-92
2023/07/07 12:16:59;;;;;;;21.35;19.80;;;30.20;99.90;;;;;;4888981;29;20558;-92
2023/07/07 12:19:31;;;;;;;21.08;19.48;;;30.30;99.90;;;;;;4904448;29;20051;-92
2023/07/07 12:22:00;;;;;;;21.08;19.75;;;30.50;99.90;;;;;;4904662;29;20036;-91
2023/07/07 12:25:02;;;;;;;21.90;20.30;;;30.60;99.90;;;;;;4904337;29;20056;-93
2023/07/07 12:27:37;;;;;;;21.55;20.08;;;30.60;99.90;;;;;;4888580;29;20454;-90
2023/07/07 12:30:04;;;;;;;22.10;20.40;;;30.70;99.90;;;;;;4904317;29;20036;-92
2023/07/07 12:32:31;;;;;;;21.92;20.15;;;30.70;99.90;;;;;;4941103;28;20510;-92
2023/07/07 12:35:07;;;;;;;21.95;20.33;;;30.60;99.90;;;;;;4982010;28;20085;-91
2023/07/07 12:37:34;;;;;;;21.10;19.70;;;30.50;99.90;;;;;;4963619;28;20050;-93
2023/07/07 12:40:05;;;;;;;21.17;19.98;;;30.60;99.90;;;;;;4986889;28;20019;-90
2023/07/07 12:42:33;;;;;;;22.13;20.35;;;30.70;99.90;;;;;;4977652;28;20034;-90
2023/07/07 12:45:30;;;;;;;21.40;20.00;;;30.70;99.90;;;;;;4978048;28;20023;-90
2023/07/07 12:48:18;;;;;;;21.35;20.00;;;30.60;99.90;;;;;;4977597;28;20047;-90
2023/07/07 12:50:48;;;;;;;22.65;20.83;;;30.70;99.90;;;;;;4978116;28;20046;-89
2023/07/07 12:53:27;;;;;;;21.42;20.13;;;30.50;99.90;;;;;;4974722;28;20034;-94
2023/07/07 12:56:04;;;;;;;23.67;21.77;;;30.50;99.90;;;;;;4980978;28;20056;-91
2023/07/07 12:58:37;;;;;;;21.65;20.00;;;30.60;99.90;;;;;;4964672;28;20521;-93
2023/07/07 13:01:10;;;;;;;21.63;19.83;;;30.70;99.90;;;;;;4964709;28;20084;-92
2023/07/07 13:04:13;;;;;;;22.08;20.48;;;30.30;99.90;;;;;;4964992;28;20034;-91
2023/07/07 13:06:57;;;;;;;21.77;20.27;;;30.60;99.90;;;;;;4964590;28;20031;-92
2023/07/07 13:09:26;;;;;;;21.75;20.27;;;30.50;99.90;;;;;;4964615;28;20488;-91
2023/07/07 13:11:55;;;;;;;21.55;20.08;;;30.30;99.90;;;;;;4964642;28;20030;-92
2023/07/07 13:14:40;;;;;;;22.33;20.63;;;30.50;99.90;;;;;;4964451;28;20042;-92
2023/07/07 13:17:09;;;;;;;21.70;20.30;;;30.60;99.90;;;;;;4964492;28;20035;-91
2023/07/07 13:19:36;;;;;;;21.75;20.08;;;30.50;99.90;;;;;;4963798;28;20033;-92
2023/07/07 13:22:17;;;;;;;21.85;19.95;;;30.40;99.90;;;;;;4964326;28;20054;-93
2023/07/07 13:24:44;;;;;;;21.88;20.27;;;30.50;99.90;;;;;;4980511;28;20109;-92
2023/07/07 13:27:21;;;;;;;21.45;19.85;;;30.60;99.90;;;;;;4975705;28;20065;-93
2023/07/07 13:30:01;;;;;;;21.65;19.77;;;30.70;99.90;;;;;;4964896;28;20084;-92
2023/07/07 13:32:31;;;;;;;21.02;19.70;;;30.60;99.90;;;;;;4964609;28;20125;-91
2023/07/07 13:35:00;;;;;;;21.30;19.83;;;30.60;99.90;;;;;;4967735;28;20030;-89
2023/07/07 13:37:32;;;;;;;21.38;19.85;;;30.70;99.90;;;;;;4981317;28;20600;-92
2023/07/07 13:39:59;;;;;;;22.48;20.13;;;30.60;99.90;;;;;;4965384;28;20058;-92
2023/07/07 13:42:27;;;;;;;21.02;19.60;;;30.50;99.90;;;;;;4963810;28;20034;-92
2023/07/07 13:45:11;;;;;;;21.95;20.17;;;30.60;99.90;;;;;;4960397;28;20041;-93
2023/07/07 13:47:43;;;;;;;21.95;20.05;;;30.60;99.90;;;;;;4944442;28;20400;-94
2023/07/07 13:50:20;;;;;;;21.20;19.88;;;30.60;99.90;;;;;;4960081;28;20132;-93
2023/07/07 13:52:59;;;;;;;21.77;20.35;;;30.60;99.90;;;;;;4944485;28;20189;-93
2023/07/07 13:55:35;;;;;;;21.70;20.02;;;30.60;99.90;;;;;;4937836;29;20213;-92
2023/07/07 13:58:04;;;;;;;22.17;20.40;;;30.60;99.90;;;;;;4921571;29;20501;-92
2023/07/07 14:00:34;;;;;;;21.38;20.08;;;30.50;99.90;;;;;;4936843;29;20036;-92
2023/07/07 14:03:03;;;;;;;25.85;20.38;;;30.40;99.90;;;;;;4921157;29;20036;-92
2023/07/07 14:05:33;;;;;;;21.30;19.83;;;30.60;99.90;;;;;;4921141;29;20485;-91
2023/07/07 14:08:06;;;;;;;21.50;19.73;;;30.70;99.90;;;;;;4943396;28;20481;-92
2023/07/07 14:10:41;;;;;;;21.42;20.00;;;30.50;99.90;;;;;;4955944;29;20043;-93
2023/07/07 14:13:18;;;;;;;20.75;19.45;;;30.10;99.90;;;;;;4940576;29;20039;-90
2023/07/07 14:15:58;;;;;;;21.40;19.65;;;30.10;99.90;;;;;;4940091;29;20035;-92
2023/07/07 14:18:34;;;;;;;22.13;20.33;;;30.10;99.90;;;;;;4939977;28;20031;-91
2023/07/07 14:21:03;;;;;;;20.92;19.52;;;30.10;99.90;;;;;;4956389;29;20122;-92
2023/07/07 14:23:30;;;;;;;21.67;20.05;;;30.10;99.90;;;;;;4939977;29;20058;-92
2023/07/07 14:25:57;;;;;;;21.38;19.92;;;30.10;99.90;;;;;;4965421;28;20121;-91
2023/07/07 14:28:42;;;;;;;21.73;19.92;;;30.00;99.90;;;;;;4962793;28;20038;-92
2023/07/07 14:31:12;;;;;;;21.70;20.30;;;29.90;99.90;;;;;;4978522;28;20034;-92
2023/07/07 14:33:48;;;;;;;22.50;20.60;;;30.00;99.90;;;;;;4963232;28;20043;-91
2023/07/07 14:36:23;;;;;;;21.73;19.90;;;30.10;99.90;;;;;;4965608;28;20027;-92
2023/07/07 14:38:55;;;;;;;22.52;21.02;;;30.30;99.90;;;;;;4959169;28;20151;-92
2023/07/07 14:41:24;;;;;;;21.42;19.73;;;30.10;99.90;;;;;;4951075;28;20537;-91
2023/07/07 14:43:54;;;;;;;21.23;19.75;;;30.00;99.90;;;;;;4950661;28;20023;-91
2023/07/07 14:46:33;;;;;;;22.30;20.70;;;30.10;99.90;;;;;;4943525;28;20074;-92
2023/07/07 14:49:13;;;;;;;23.50;21.70;;;30.10;99.90;;;;;;4943065;28;20042;-94
2023/07/07 14:51:48;;;;;;;22.48;20.80;;;29.90;99.90;;;;;;4942981;28;20403;-91
2023/07/07 14:54:18;;;;;;;22.85;21.15;;;30.00;99.90;;;;;;4943286;28;20034;-92
2023/07/07 14:56:52;;;;;;;21.95;20.50;;;30.20;99.90;;;;;;4943046;28;20033;-92
2023/07/07 14:59:26;;;;;;;23.17;21.48;;;30.30;99.90;;;;;;4943088;28;20452;-92
2023/07/07 15:02:02;;;;;;;22.40;20.83;;;30.60;99.90;;;;;;4943320;28;20476;-92
2023/07/07 15:04:33;;;;;;;22.83;21.13;;;30.50;99.90;;;;;;4943434;28;20093;-92
2023/07/07 15:07:01;;;;;;;23.25;21.25;;;30.30;99.90;;;;;;4943292;28;20035;-91
2023/07/07 15:09:27;;;;;;;23.10;21.50;;;30.40;99.90;;;;;;4942670;28;20031;-90
2023/07/07 15:11:54;;;;;;;22.70;21.10;;;30.30;99.90;;;;;;4943106;28;20499;-91
2023/07/07 15:14:21;;;;;;;22.67;21.08;;;30.40;99.90;;;;;;4943043;28;20035;-90
2023/07/07 15:16:48;;;;;;;23.10;21.48;;;30.30;99.90;;;;;;4942955;28;20026;-90
2023/07/07 15:19:19;;;;;;;22.60;20.90;;;30.20;99.90;;;;;;4943020;28;20030;-90
2023/07/07 15:21:49;;;;;;;22.20;20.60;;;30.20;99.90;;;;;;4959819;28;20027;-91
2023/07/07 15:24:16;;;;;;;22.52;20.83;;;30.20;99.90;;;;;;4943520;28;20129;-91
2023/07/07 15:26:43;;;;;;;22.25;20.45;;;29.90;99.90;;;;;;4943085;28;20058;-89
2023/07/07 15:29:16;;;;;;;22.70;21.10;;;30.00;99.90;;;;;;4947641;28;20038;-90
2023/07/07 15:31:42;;;;;;;22.15;20.73;;;30.20;99.90;;;;;;4953759;28;20030;-90
2023/07/07 15:34:08;;;;;;;22.23;20.83;;;30.20;99.90;;;;;;4967661;28;20030;-93
2023/07/07 15:36:35;;;;;;;22.60;20.85;;;29.90;99.90;;;;;;4964038;28;20038;-92
2023/07/07 15:39:01;;;;;;;21.95;20.65;;;29.80;99.90;;;;;;4962947;28;20027;-92
2023/07/07 15:41:29;;;;;;;22.40;20.85;;;29.60;99.90;;;;;;4962224;28;20030;-92
2023/07/07 15:43:55;;;;;;;23.17;21.30;;;29.50;99.90;;;;;;4961350;28;20117;-93
2023/07/07 15:46:25;;;;;;;26.77;22.25;;;29.60;99.90;;;;;;4961509;28;20031;-92
2023/07/07 15:48:51;;;;;;;24.42;22.20;;;29.60;99.90;;;;;;4958557;28;20133;-93
2023/07/07 15:51:33;;;;;;;23.98;22.25;;;29.50;99.90;;;;;;4942204;28;20125;-91
2023/07/07 15:54:01;;;;;;;23.75;22.02;;;29.50;99.90;;;;;;4942465;28;20069;-92
2023/07/07 15:56:38;;;;;;;25.08;23.17;;;29.30;99.90;;;;;;4942250;28;20101;-92
2023/07/07 15:59:21;;;;;;;24.45;22.48;;;29.30;99.90;;;;;;4942112;28;20031;-90
2023/07/07 16:01:53;;;;;;;23.55;22.00;;;29.20;99.90;;;;;;4942315;28;20031;-91
2023/07/07 16:04:20;;;;;;;23.83;22.23;;;29.30;99.90;;;;;;4942479;28;20031;-89
2023/07/07 16:06:49;;;;;;;22.48;20.88;;;29.30;99.90;;;;;;4942331;28;20037;-93
2023/07/07 16:09:17;;;;;;;23.00;21.30;;;29.30;99.90;;;;;;4942164;28;20041;-93
2023/07/07 16:11:44;;;;;;;24.33;22.13;;;29.20;99.90;;;;;;4942299;28;20027;-94
2023/07/07 16:14:11;;;;;;;25.33;21.42;;;29.10;99.90;;;;;;4942398;28;20105;-91
2023/07/07 16:16:39;;;;;;;21.95;20.45;;;29.10;99.90;;;;;;4958022;28;20033;-92
2023/07/07 16:19:10;;;;;;;21.52;20.02;;;29.10;99.90;;;;;;4942000;28;20023;-93
2023/07/07 16:21:37;;;;;;;22.75;20.92;;;29.10;99.90;;;;;;4942106;28;20035;-92
2023/07/07 16:24:03;;;;;;;22.92;21.15;;;29.10;99.90;;;;;;4949160;28;20006;-93
2023/07/07 16:26:33;;;;;;;23.35;21.55;;;29.00;99.90;;;;;;4966764;28;20075;-92
2023/07/07 16:29:00;;;;;;;22.35;20.73;;;29.00;99.90;;;;;;4965179;28;20050;-93
2023/07/07 16:31:28;;;;;;;22.60;21.10;;;29.00;99.90;;;;;;4943184;28;20046;-93
2023/07/07 16:33:55;;;;;;;22.17;20.60;;;29.10;99.90;;;;;;4942417;28;20039;-92
2023/07/07 16:36:25;;;;;;;22.58;21.08;;;29.10;99.90;;;;;;4959200;28;20031;-93
2023/07/07 16:38:55;;;;;;;23.77;21.55;;;29.10;99.90;;;;;;4944134;28;20571;-92
2023/07/07 16:41:27;;;;;;;22.38;20.77;;;28.90;99.90;;;;;;4943306;28;20031;-90
2023/07/07 16:43:58;;;;;;;22.63;21.20;;;28.90;99.90;;;;;;4942976;28;20034;-90
2023/07/07 16:46:25;;;;;;;23.33;21.67;;;28.70;99.90;;;;;;4943528;28;20539;-91
2023/07/07 16:48:52;;;;;;;23.00;21.23;;;28.60;99.90;;;;;;4943190;28;20447;-90
2023/07/07 16:51:24;;;;;;;23.52;21.50;;;28.60;99.90;;;;;;4943224;28;20512;-91
2023/07/07 16:53:52;;;;;;;23.10;21.20;;;28.60;99.90;;;;;;4942996;28;20038;-91
2023/07/07 16:56:24;;;;;;;22.80;20.95;;;28.60;99.90;;;;;;4945900;28;20027;-90
2023/07/07 16:58:51;;;;;;;22.25;20.70;;;28.50;99.90;;;;;;4946476;28;20082;-91
2023/07/07 17:01:18;;;;;;;22.38;20.83;;;28.50;99.90;;;;;;4946123;28;20110;-92
2023/07/07 17:03:45;;;;;;;22.33;20.38;;;28.50;99.90;;;;;;4942216;29;20047;-92
2023/07/07 17:06:22;;;;;;;22.08;20.17;;;28.40;99.90;;;;;;4942902;29;20035;-90
2023/07/07 17:08:54;;;;;;;21.30;19.83;;;28.30;99.90;;;;;;4943672;29;20277;-90
2023/07/07 17:11:30;;;;;;;21.83;20.42;;;28.30;99.90;;;;;;4960380;28;20091;-91
2023/07/07 17:13:57;;;;;;;22.45;20.63;;;28.30;99.90;;;;;;4945669;29;20036;-91
2023/07/07 17:16:24;;;;;;;22.33;20.63;;;28.30;99.90;;;;;;4953392;29;20030;-90
2023/07/07 17:18:57;;;;;;;22.40;20.67;;;28.30;99.90;;;;;;4965138;29;20047;-90
2023/07/07 17:21:26;;;;;;;23.02;21.35;;;28.30;99.90;;;;;;4961991;29;20031;-90
2023/07/07 17:23:53;;;;;;;23.05;21.35;;;28.20;99.90;;;;;;4953157;29;20429;-90
2023/07/07 17:26:28;;;;;;;22.88;21.27;;;28.10;99.90;;;;;;4942164;29;20023;-91
2023/07/07 17:28:58;;;;;;;22.17;20.58;;;28.10;99.90;;;;;;4941450;29;20070;-90
2023/07/07 17:31:29;;;;;;;21.52;19.92;;;28.00;99.90;;;;;;4941706;29;20038;-91
2023/07/07 17:33:55;;;;;;;21.52;19.88;;;27.90;99.90;;;;;;4945156;28;20039;-91
2023/07/07 17:36:27;;;;;;;21.20;19.77;;;27.90;99.90;;;;;;4944825;28;20023;-92
2023/07/07 17:38:55;;;;;;;22.52;20.65;;;27.80;99.90;;;;;;4944618;28;20062;-90
2023/07/07 17:41:25;;;;;;;22.85;21.05;;;27.80;99.90;;;;;;4944491;28;20022;-91